createdAt,value
2022-10-05T00:00:53.733Z,98930.50
2022-10-05T00:03:23.024Z,98931.44
2022-10-05T00:05:50.529Z,98929.19
2022-10-05T00:08:24.050Z,98921.28
2022-10-05T00:10:51.563Z,98922.75
2022-10-05T00:13:28.297Z,98921.50
2022-10-05T00:16:05.268Z,98906.78
2022-10-05T00:18:33.104Z,98907.53
2022-10-05T00:21:00.346Z,98908.25
2022-10-05T00:23:31.221Z,98907.53
2022-10-05T00:26:11.682Z,98910.94
2022-10-05T00:28:40.527Z,98913.59
2022-10-05T00:31:25.885Z,98917.50
2022-10-05T00:33:53.253Z,98908.19
2022-10-05T00:36:20.212Z,98910.91
2022-10-05T00:38:47.476Z,98905.81
2022-10-05T00:42:09.951Z,98899.28
2022-10-05T00:44:43.530Z,98898.81
2022-10-05T00:47:33.595Z,98899.56
2022-10-05T00:50:35.939Z,98887.63
2022-10-05T00:53:24.396Z,98890.53
2022-10-05T00:56:12.524Z,98888.78
2022-10-05T00:59:07.434Z,98884.13
2022-10-05T01:01:43.613Z,98876.34
2022-10-05T01:04:29.530Z,98881.00
2022-10-05T01:07:20.935Z,98879.75
2022-10-05T01:10:12.336Z,98878.75
2022-10-05T01:12:45.451Z,98869.63
2022-10-05T01:15:42.266Z,98869.63
2022-10-05T01:18:16.878Z,98860.81
2022-10-05T01:20:52.988Z,98866.94
2022-10-05T01:23:44.606Z,98869.84
2022-10-05T01:26:14.591Z,98865.47
2022-10-05T01:28:56.425Z,98866.22
2022-10-05T01:31:58.589Z,98863.19
2022-10-05T01:34:25.784Z,98856.16
2022-10-05T01:37:24.252Z,98853.22
2022-10-05T01:40:28.283Z,98854.88
2022-10-05T01:43:21.568Z,98855.63
2022-10-05T01:46:06.781Z,98843.09
2022-10-05T01:48:37.860Z,98836.44
2022-10-05T01:51:13.241Z,98844.72
2022-10-05T01:54:34.280Z,98839.06
2022-10-05T01:57:16.517Z,98831.72
2022-10-05T01:59:58.479Z,98833.16
2022-10-05T02:02:29.207Z,98825.59
2022-10-05T02:05:11.598Z,98827.75
2022-10-05T02:08:00.717Z,98825.06
2022-10-05T02:10:38.631Z,98827.97
2022-10-05T02:13:28.247Z,98816.97
2022-10-05T02:16:01.018Z,98825.06
2022-10-05T02:18:33.003Z,98820.41
2022-10-05T02:21:02.060Z,98826.50
2022-10-05T02:23:33.825Z,98832.94
2022-10-05T02:26:02.177Z,98829.00
2022-10-05T02:28:41.803Z,98833.66
2022-10-05T02:31:22.756Z,98836.91
2022-10-05T02:33:49.882Z,98829.84
2022-10-05T02:36:37.175Z,98827.16
2022-10-05T02:39:13.027Z,98820.28
2022-10-05T02:42:09.141Z,98831.06
2022-10-05T02:44:54.710Z,98831.06
2022-10-05T02:47:47.859Z,98836.03
2022-10-05T02:50:27.306Z,98836.75
2022-10-05T02:53:29.901Z,98831.66
2022-10-05T02:55:59.708Z,98834.16
2022-10-05T02:58:31.139Z,98834.13
2022-10-05T03:01:21.253Z,98834.94
2022-10-05T03:03:55.953Z,98831.94
2022-10-05T03:06:35.399Z,98828.94
2022-10-05T03:09:05.962Z,98825.72
2022-10-05T03:11:39.218Z,98831.84
2022-10-05T03:14:12.665Z,98833.31
2022-10-05T03:16:58.265Z,98830.41
2022-10-05T03:19:50.152Z,98831.84
2022-10-05T03:22:49.838Z,98833.50
2022-10-05T03:25:22.753Z,98830.06
2022-10-05T03:28:00.521Z,98829.13
2022-10-05T03:30:33.051Z,98831.59
2022-10-05T03:33:08.711Z,98840.91
2022-10-05T03:36:13.579Z,98838.72
2022-10-05T03:38:54.167Z,98835.09
2022-10-05T03:41:36.942Z,98830.22
2022-10-05T03:44:22.687Z,98829.72
2022-10-05T03:47:03.270Z,98819.13
2022-10-05T03:49:48.793Z,98816.88
2022-10-05T03:52:22.349Z,98810.25
2022-10-05T03:54:49.258Z,98803.59
2022-10-05T03:57:23.555Z,98803.59
2022-10-05T04:00:04.707Z,98807.56
2022-10-05T04:02:33.699Z,98805.06
2022-10-05T04:05:31.134Z,98797.22
2022-10-05T04:07:58.083Z,98802.91
2022-10-05T04:10:31.687Z,98808.31
2022-10-05T04:13:01.670Z,98797.53
2022-10-05T04:15:41.906Z,98800.72
2022-10-05T04:18:34.432Z,98798.00
2022-10-05T04:21:10.903Z,98802.19
2022-10-05T04:24:01.146Z,98805.81
2022-10-05T04:26:50.072Z,98808.00
2022-10-05T04:29:33.048Z,98794.31
2022-10-05T04:32:28.135Z,98792.34
2022-10-05T04:35:24.100Z,98788.91
2022-10-05T04:38:09.755Z,98788.91
2022-10-05T04:40:41.964Z,98793.06
2022-10-05T04:43:37.005Z,98791.84
2022-10-05T04:46:06.897Z,98797.31
2022-10-05T04:49:19.164Z,98797.06
2022-10-05T04:52:12.313Z,98800.59
2022-10-05T04:54:57.198Z,98809.34
2022-10-05T04:57:57.051Z,98820.28
2022-10-05T05:00:26.170Z,98826.69
2022-10-05T05:03:04.178Z,98829.44
2022-10-05T05:06:18.007Z,98825.69
2022-10-05T05:09:10.430Z,98827.63
2022-10-05T05:11:55.551Z,98829.88
2022-10-05T05:15:07.438Z,98827.25
2022-10-05T05:17:55.091Z,98824.56
2022-10-05T05:20:45.974Z,98823.03
2022-10-05T05:23:22.647Z,98823.50
2022-10-05T05:26:07.201Z,98818.31
2022-10-05T05:29:02.888Z,98816.06
2022-10-05T05:31:35.906Z,98806.47
2022-10-05T05:34:18.314Z,98810.28
2022-10-05T05:36:57.854Z,98809.50
2022-10-05T05:39:29.820Z,98803.13
2022-10-05T05:42:01.472Z,98806.25
2022-10-05T05:44:38.734Z,98796.09
2022-10-05T05:47:28.639Z,98796.53
2022-10-05T05:50:07.393Z,98802.84
2022-10-05T05:52:51.958Z,98794.25
2022-10-05T05:55:24.352Z,98803.78
2022-10-05T05:58:17.598Z,98799.88
2022-10-05T06:01:32.861Z,98814.28
2022-10-05T06:04:09.556Z,98814.28
2022-10-05T06:06:40.539Z,98813.97
2022-10-05T06:09:35.486Z,98812.03
2022-10-05T06:12:18.929Z,98812.72
2022-10-05T06:14:53.315Z,98806.41
2022-10-05T06:17:27.344Z,98798.31
2022-10-05T06:20:04.920Z,98805.66
2022-10-05T06:22:41.141Z,98813.75
2022-10-05T06:25:15.213Z,98813.75
2022-10-05T06:28:16.397Z,98810.03
2022-10-05T06:30:58.817Z,98809.72
2022-10-05T06:33:49.532Z,98802.19
2022-10-05T06:36:38.937Z,98803.41
2022-10-05T06:39:18.015Z,98804.66
2022-10-05T06:42:01.940Z,98803.59
2022-10-05T06:44:49.560Z,98796.78
2022-10-05T06:47:52.099Z,98792.81
2022-10-05T06:50:48.165Z,98797.22
2022-10-05T06:53:33.181Z,98796.19
2022-10-05T06:56:27.593Z,98799.53
2022-10-05T06:59:20.633Z,98800.66
2022-10-05T07:01:55.266Z,98801.63
2022-10-05T07:04:37.187Z,98807.22
2022-10-05T07:07:16.840Z,98810.09
2022-10-05T07:10:24.354Z,98805.75
2022-10-05T07:12:54.398Z,98807.22
2022-10-05T07:15:46.651Z,98808.69
2022-10-05T07:18:50.885Z,98813.03
2022-10-05T07:21:55.289Z,98811.78
2022-10-05T07:24:32.831Z,98815.94
2022-10-05T07:27:23.011Z,98820.28
2022-10-05T07:30:10.507Z,98817.38
2022-10-05T07:32:45.547Z,98815.94
2022-10-05T07:36:03.482Z,98818.84
2022-10-05T07:38:37.736Z,98815.94
2022-10-05T07:41:31.220Z,98817.59
2022-10-05T07:44:16.374Z,98820.72
2022-10-05T07:46:47.347Z,98825.25
2022-10-05T07:49:25.875Z,98826.19
2022-10-05T07:51:57.503Z,98828.22
2022-10-05T07:54:33.684Z,98827.66
2022-10-05T07:57:27.383Z,98836.69
2022-10-05T08:00:06.514Z,98837.13
2022-10-05T08:02:58.541Z,98842.94
2022-10-05T08:05:58.959Z,98845.81
2022-10-05T08:08:25.940Z,98853.19
2022-10-05T08:11:13.964Z,98853.91
2022-10-05T08:13:55.520Z,98859.75
2022-10-05T08:16:27.349Z,98856.00
2022-10-05T08:19:03.376Z,98852.47
2022-10-05T08:22:00.706Z,98855.41
2022-10-05T08:24:30.649Z,98862.47
2022-10-05T08:27:07.077Z,98864.13
2022-10-05T08:30:04.023Z,98869.00
2022-10-05T08:33:01.969Z,98869.91
2022-10-05T08:35:39.550Z,98867.44
2022-10-05T08:38:29.149Z,98858.09
2022-10-05T08:41:17.110Z,98870.03
2022-10-05T08:43:55.297Z,98869.50
2022-10-05T08:46:34.443Z,98873.69
2022-10-05T08:49:23.225Z,98872.63
2022-10-05T08:52:29.323Z,98875.03
2022-10-05T08:55:23.259Z,98883.81
2022-10-05T08:58:03.682Z,98882.78
2022-10-05T09:01:04.955Z,98880.00
2022-10-05T09:03:43.876Z,98886.31
2022-10-05T09:06:26.882Z,98884.03
2022-10-05T09:09:04.911Z,98883.44
2022-10-05T09:11:40.901Z,98889.44
2022-10-05T09:14:43.184Z,98895.22
2022-10-05T09:17:39.330Z,98894.31
2022-10-05T09:20:27.599Z,98897.91
2022-10-05T09:23:00.273Z,98904.00
2022-10-05T09:25:55.138Z,98907.91
2022-10-05T09:28:34.716Z,98911.84
2022-10-05T09:31:25.578Z,98916.34
2022-10-05T09:34:37.285Z,98922.63
2022-10-05T09:37:22.778Z,98927.22
2022-10-05T09:40:04.610Z,98933.22
2022-10-05T09:43:02.247Z,98936.34
2022-10-05T09:45:53.994Z,98937.88
2022-10-05T09:49:02.607Z,98943.63
2022-10-05T09:51:53.718Z,98935.94
2022-10-05T09:55:03.152Z,98933.25
2022-10-05T09:57:50.861Z,98942.34
2022-10-05T10:00:23.458Z,98933.13
2022-10-05T10:03:16.522Z,98942.47
2022-10-05T10:06:11.501Z,98942.47
2022-10-05T10:08:38.475Z,98949.63
2022-10-05T10:11:17.559Z,98947.13
2022-10-05T10:14:10.872Z,98954.50
2022-10-05T10:17:02.121Z,98962.09
2022-10-05T10:19:29.215Z,98957.44
2022-10-05T10:22:12.370Z,98952.44
2022-10-05T10:25:02.078Z,98954.00
2022-10-05T10:28:07.375Z,98954.84
2022-10-05T10:30:55.014Z,98958.47
2022-10-05T10:34:04.114Z,98958.13
2022-10-05T10:37:11.346Z,98955.25
2022-10-05T10:40:00.254Z,98957.41
2022-10-05T10:42:38.262Z,98963.97
2022-10-05T10:45:20.092Z,98968.53
2022-10-05T10:47:55.766Z,98959.00
2022-10-05T10:50:32.949Z,98955.66
2022-10-05T10:53:47.245Z,98957.56
2022-10-05T10:56:49.492Z,98962.41
2022-10-05T10:59:35.556Z,98959.19
2022-10-05T11:02:02.570Z,98950.25
2022-10-05T11:04:48.366Z,98963.47
2022-10-05T11:07:44.336Z,98958.66
2022-10-05T11:10:32.568Z,98960.75
2022-10-05T11:13:02.151Z,98957.63
2022-10-05T11:15:38.191Z,98957.53
2022-10-05T11:18:26.679Z,98962.31
2022-10-05T11:21:02.557Z,98964.59
2022-10-05T11:23:44.203Z,98967.25
2022-10-05T11:26:53.463Z,98975.75
2022-10-05T11:29:32.699Z,98979.88
2022-10-05T11:32:21.365Z,98985.28
2022-10-05T11:35:03.581Z,98979.25
2022-10-05T11:37:36.593Z,98981.06
2022-10-05T11:40:21.987Z,98978.56
2022-10-05T11:43:17.141Z,98973.50
2022-10-05T11:46:09.011Z,98973.50
2022-10-05T11:49:00.780Z,98969.97
2022-10-05T11:51:34.625Z,98974.97
2022-10-05T11:55:16.190Z,98975.38
2022-10-05T11:57:51.095Z,98971.00
2022-10-05T12:00:19.822Z,98961.47
2022-10-05T12:03:24.304Z,98970.22
2022-10-05T12:06:25.880Z,98965.28
2022-10-05T12:09:17.703Z,98968.03
2022-10-05T12:11:57.910Z,98965.94
2022-10-05T12:14:44.991Z,98963.03
2022-10-05T12:17:40.999Z,98956.69
2022-10-05T12:20:21.299Z,98947.75
2022-10-05T12:22:55.859Z,98953.16
2022-10-05T12:25:50.276Z,98949.44
2022-10-05T12:28:23.217Z,98959.09
2022-10-05T12:31:18.627Z,98963.88
2022-10-05T12:34:12.193Z,98960.88
2022-10-05T12:37:10.200Z,98956.59
2022-10-05T12:39:51.073Z,98950.16
2022-10-05T12:42:40.808Z,98945.16
2022-10-05T12:45:24.396Z,98941.63
2022-10-05T12:48:14.623Z,98942.56
2022-10-05T12:50:43.555Z,98942.69
2022-10-05T12:53:41.374Z,98930.44
2022-10-05T12:56:08.421Z,98922.81
2022-10-05T12:58:54.040Z,98927.31
2022-10-05T13:01:27.046Z,98931.56
2022-10-05T13:03:57.009Z,98931.78
2022-10-05T13:06:55.763Z,98924.94
2022-10-05T13:09:41.577Z,98929.16
2022-10-05T13:12:21.096Z,98926.94
2022-10-05T13:15:26.794Z,98923.22
2022-10-05T13:17:54.069Z,98927.78
2022-10-05T13:20:39.445Z,98931.16
2022-10-05T13:23:35.119Z,98922.47
2022-10-05T13:26:04.294Z,98913.81
2022-10-05T13:28:34.356Z,98919.50
2022-10-05T13:31:24.037Z,98923.91
2022-10-05T13:33:51.043Z,98920.06
2022-10-05T13:36:36.360Z,98925.75
2022-10-05T13:39:27.712Z,98923.25
2022-10-05T13:42:04.117Z,98915.75
2022-10-05T13:44:48.666Z,98920.31
2022-10-05T13:47:22.441Z,98912.97
2022-10-05T13:50:18.516Z,98920.53
2022-10-05T13:52:57.047Z,98918.91
2022-10-05T13:55:45.405Z,98910.38
2022-10-05T13:58:31.521Z,98914.03
2022-10-05T14:01:08.150Z,98905.88
2022-10-05T14:03:37.416Z,98910.28
2022-10-05T14:06:27.859Z,98911.19
2022-10-05T14:08:55.371Z,98904.66
2022-10-05T14:11:31.662Z,98905.59
2022-10-05T14:14:15.172Z,98903.25
2022-10-05T14:16:52.279Z,98903.06
2022-10-05T14:19:23.929Z,98895.38
2022-10-05T14:22:02.703Z,98901.53
2022-10-05T14:24:44.105Z,98890.78
2022-10-05T14:27:23.707Z,98895.41
2022-10-05T14:29:58.314Z,98897.50
2022-10-05T14:32:27.609Z,98887.13
2022-10-05T14:35:16.156Z,98891.69
2022-10-05T14:38:16.459Z,98894.97
2022-10-05T14:40:43.568Z,98888.00
2022-10-05T14:43:16.362Z,98884.84
2022-10-05T14:45:55.474Z,98886.94
2022-10-05T14:48:23.176Z,98888.72
2022-10-05T14:50:59.625Z,98889.81
2022-10-05T14:53:39.221Z,98894.78
2022-10-05T14:56:25.002Z,98889.38
2022-10-05T14:59:14.406Z,98895.97
2022-10-05T15:01:52.198Z,98887.38
2022-10-05T15:04:43.192Z,98899.66
2022-10-05T15:07:24.793Z,98903.78
2022-10-05T15:10:06.517Z,98898.78
2022-10-05T15:12:37.847Z,98904.78
2022-10-05T15:15:46.322Z,98912.16
2022-10-05T15:18:29.608Z,98896.66
2022-10-05T15:21:26.679Z,98904.03
2022-10-05T15:24:01.115Z,98900.03
2022-10-05T15:26:49.524Z,98894.31
2022-10-05T15:29:55.830Z,98901.22
2022-10-05T15:32:42.455Z,98902.78
2022-10-05T15:35:21.629Z,98906.09
2022-10-05T15:38:10.684Z,98906.19
2022-10-05T15:40:42.874Z,98903.97
2022-10-05T15:43:18.316Z,98905.91
2022-10-05T15:46:23.619Z,98900.72
2022-10-05T15:49:16.631Z,98890.94
2022-10-05T15:51:53.386Z,98893.44
2022-10-05T15:54:38.916Z,98899.75
2022-10-05T15:57:17.388Z,98901.41
2022-10-05T16:00:02.479Z,98900.84
2022-10-05T16:03:06.246Z,98896.31
2022-10-05T16:06:08.889Z,98902.06
2022-10-05T16:08:50.850Z,98909.28
2022-10-05T16:11:39.430Z,98909.81
2022-10-05T16:14:40.388Z,98903.31
2022-10-05T16:17:48.966Z,98899.84
2022-10-05T16:20:41.360Z,98903.44
2022-10-05T16:23:33.511Z,98896.78
2022-10-05T16:26:21.938Z,98894.44
2022-10-05T16:29:19.534Z,98907.75
2022-10-05T16:31:55.583Z,98915.59
2022-10-05T16:34:34.874Z,98917.50
2022-10-05T16:37:13.084Z,98911.91
2022-10-05T16:39:50.722Z,98910.13
2022-10-05T16:43:14.528Z,98916.25
2022-10-05T16:45:56.652Z,98918.06
2022-10-05T16:48:31.592Z,98916.22
2022-10-05T16:51:20.135Z,98907.44
2022-10-05T16:54:07.288Z,98904.50
2022-10-05T16:56:49.442Z,98903.19
2022-10-05T16:59:37.975Z,98907.34
2022-10-05T17:02:30.381Z,98907.88
2022-10-05T17:05:20.320Z,98909.59
2022-10-05T17:07:53.530Z,98902.16
2022-10-05T17:10:40.557Z,98907.41
2022-10-05T17:13:29.216Z,98911.09
2022-10-05T17:16:19.426Z,98908.50
2022-10-05T17:19:15.500Z,98906.41
2022-10-05T17:21:49.930Z,98915.06
2022-10-05T17:24:20.110Z,98909.13
2022-10-05T17:27:03.166Z,98912.09
2022-10-05T17:29:48.313Z,98918.22
2022-10-05T17:32:16.022Z,98910.50
2022-10-05T17:35:01.008Z,98915.91
2022-10-05T17:37:28.233Z,98920.69
2022-10-05T17:39:57.223Z,98906.88
2022-10-05T17:42:45.275Z,98923.03
2022-10-05T17:45:15.009Z,98921.09
2022-10-05T17:47:59.132Z,98914.81
2022-10-05T17:51:04.381Z,98928.63
2022-10-05T17:53:52.501Z,98930.84
2022-10-05T17:56:22.007Z,98923.06
2022-10-05T17:58:57.634Z,98923.69
2022-10-05T18:01:31.736Z,98932.50
2022-10-05T18:04:13.781Z,98928.25
2022-10-05T18:07:02.037Z,98928.78
2022-10-05T18:09:33.737Z,98931.78
2022-10-05T18:12:12.804Z,98939.03
2022-10-05T18:15:07.423Z,98941.63
2022-10-05T18:17:51.682Z,98949.44
2022-10-05T18:20:24.444Z,98957.81
2022-10-05T18:23:15.007Z,98952.44
2022-10-05T18:25:48.883Z,98949.53
2022-10-05T18:28:43.473Z,98956.69
2022-10-05T18:31:16.614Z,98957.06
2022-10-05T18:33:53.056Z,98958.53
2022-10-05T18:36:24.416Z,98949.88
2022-10-05T18:39:14.332Z,98962.22
2022-10-05T18:41:55.436Z,98962.78
2022-10-05T18:44:40.949Z,98966.53
2022-10-05T18:47:38.908Z,98963.44
2022-10-05T18:50:18.070Z,98964.25
2022-10-05T18:52:54.886Z,98963.28
2022-10-05T18:55:33.809Z,98976.56
2022-10-05T18:58:07.412Z,98959.94
2022-10-05T19:00:56.996Z,98963.44
2022-10-05T19:03:51.741Z,98975.41
2022-10-05T19:06:26.780Z,98972.06
2022-10-05T19:09:19.147Z,98972.06
2022-10-05T19:12:24.304Z,98985.53
2022-10-05T19:15:11.264Z,98977.75
2022-10-05T19:18:11.646Z,98979.91
2022-10-05T19:21:13.353Z,98979.88
2022-10-05T19:24:12.597Z,98982.06
2022-10-05T19:27:04.292Z,98988.19
2022-10-05T19:29:45.515Z,98992.81
2022-10-05T19:32:26.583Z,99001.13
2022-10-05T19:35:09.348Z,98998.94
2022-10-05T19:38:21.551Z,99001.38
2022-10-05T19:41:03.600Z,98991.13
2022-10-05T19:44:13.731Z,98997.47
2022-10-05T19:46:56.175Z,99002.41
2022-10-05T19:49:47.802Z,99005.34
2022-10-05T19:52:28.676Z,99001.47
2022-10-05T19:55:24.307Z,99002.91
2022-10-05T19:57:56.433Z,99004.84
2022-10-05T20:00:26.519Z,99007.75
2022-10-05T20:03:12.407Z,99010.63
2022-10-05T20:05:40.708Z,99008.16
2022-10-05T20:08:12.669Z,99008.41
2022-10-05T20:10:39.734Z,99006.47
2022-10-05T20:13:08.932Z,99013.25
2022-10-05T20:15:55.545Z,99018.88
2022-10-05T20:19:02.851Z,99020.84
2022-10-05T20:21:36.568Z,99018.91
2022-10-05T20:24:14.606Z,99016.00
2022-10-05T20:27:06.947Z,99017.00
2022-10-05T20:29:38.987Z,99016.25
2022-10-05T20:32:14.387Z,99015.53
2022-10-05T20:34:43.877Z,99021.84
2022-10-05T20:37:13.470Z,99030.19
2022-10-05T20:39:42.170Z,99033.13
2022-10-05T20:42:10.569Z,99035.81
2022-10-05T20:44:38.437Z,99044.88
2022-10-05T20:47:10.107Z,99044.63
2022-10-05T20:49:39.011Z,99043.44
2022-10-05T20:52:10.097Z,99046.56
2022-10-05T20:54:38.606Z,99052.41
2022-10-05T20:57:06.783Z,99059.50
2022-10-05T20:59:34.844Z,99054.78
2022-10-05T21:02:02.116Z,99060.16
2022-10-05T21:04:43.122Z,99065.03
2022-10-05T21:07:10.605Z,99069.66
2022-10-05T21:09:39.540Z,99069.66
2022-10-05T21:12:06.858Z,99074.06
2022-10-05T21:14:34.678Z,99075.75
2022-10-05T21:17:02.398Z,99073.28
2022-10-05T21:19:29.936Z,99079.41
2022-10-05T21:22:00.011Z,99078.16
2022-10-05T21:24:26.983Z,99084.78
2022-10-05T21:26:57.046Z,99085.78
2022-10-05T21:29:24.136Z,99086.59
2022-10-05T21:31:51.462Z,99086.44
2022-10-05T21:34:18.586Z,99082.03
2022-10-05T21:36:45.607Z,99082.56
2022-10-05T21:39:12.582Z,99091.63
2022-10-05T21:41:39.944Z,99092.13
2022-10-05T21:44:07.248Z,99084.56
2022-10-05T21:46:37.461Z,99084.06
2022-10-05T21:49:06.752Z,99093.31
2022-10-05T21:51:34.459Z,99093.53
2022-10-05T21:54:07.574Z,99093.97
2022-10-05T21:56:38.206Z,99094.72
2022-10-05T21:59:08.058Z,99089.81
2022-10-05T22:01:36.249Z,99083.16
2022-10-05T22:04:06.702Z,99087.06
2022-10-05T22:06:35.582Z,99088.28
2022-10-05T22:09:04.025Z,99092.94
2022-10-05T22:11:31.898Z,99098.31
2022-10-05T22:14:02.992Z,99092.75
2022-10-05T22:16:33.096Z,99093.47
2022-10-05T22:19:04.685Z,99093.53
2022-10-05T22:21:34.318Z,99093.78
2022-10-05T22:24:02.963Z,99086.22
2022-10-05T22:26:30.555Z,99093.31
2022-10-05T22:28:57.963Z,99093.03
2022-10-05T22:31:25.156Z,99091.31
2022-10-05T22:33:52.493Z,99099.63
2022-10-05T22:36:20.033Z,99091.81
2022-10-05T22:38:49.764Z,99099.88
2022-10-05T22:41:18.593Z,99100.34
2022-10-05T22:43:49.011Z,99098.13
2022-10-05T22:46:16.198Z,99099.09
2022-10-05T22:48:43.473Z,99103.72
2022-10-05T22:51:10.742Z,99107.41
2022-10-05T22:53:38.209Z,99110.31
2022-10-05T22:56:11.443Z,99105.94
2022-10-05T22:58:39.311Z,99108.34
2022-10-05T23:01:11.868Z,99106.19
2022-10-05T23:03:39.296Z,99102.03
2022-10-05T23:06:11.936Z,99094.22
2022-10-05T23:08:41.971Z,99090.78
2022-10-05T23:11:19.469Z,99091.81
2022-10-05T23:13:46.559Z,99097.19
2022-10-05T23:16:15.266Z,99102.06
2022-10-05T23:18:43.436Z,99101.59
2022-10-05T23:21:11.656Z,99101.09
2022-10-05T23:23:41.428Z,99098.16
2022-10-05T23:26:11.264Z,99099.16
2022-10-05T23:28:46.759Z,99099.88
2022-10-05T23:31:16.766Z,99095.31
2022-10-05T23:33:44.416Z,99101.69
2022-10-05T23:36:18.123Z,99101.97
2022-10-05T23:38:45.132Z,99103.69
2022-10-05T23:41:12.956Z,99096.34
2022-10-05T23:43:40.492Z,99097.56
2022-10-05T23:46:07.926Z,99100.03
2022-10-05T23:48:38.258Z,99097.81
2022-10-05T23:51:07.286Z,99093.44
2022-10-05T23:53:34.688Z,99087.81
2022-10-05T23:56:01.732Z,99091.00
2022-10-05T23:58:30.210Z,99089.75
